Station Historical Data
Daily Summary for December 3, 2017 Units:  Metric    English   Both
« Previous Day
Next Day »
Daily Weekly Monthly Yearly Custom
  High: Low: Average:
Temperature: 19.3 °C 6.8 °C 12.3 °C
Dew Point: 10.3 °C 4.2 °C 7.1 °C
Humidity: 94% 37% 74%
Wind Speed: 7.4km/h 0km/h 1.4km/h
Wind Gust: 7.4km/h - -
Wind- - SSE
Pressure: 1024.6 hPa 1021.6 hPa -
Precipitation: 0 mm    
Historical Graphs
 
 
Tabular Data for December 3, 2017
Time Temperature Dew Point Pressure Wind Wind Speed Wind Gust Humidity Rainfall Rate (Hourly) Conditions
00:04 10.9 °C 9.4 °C 1022.6 hPa Calm     90% 0 mm FEW
00:09 10.8 °C 9.4 °C 1022.6 hPa Calm     91% 0 mm FEW
00:29 10.6 °C 9.2 °C 1022.6 hPa Calm     91% 0 mm FEW
00:35 10.6 °C 9.2 °C 1022.2 hPa Calm     91% 0 mm FEW
00:40 10.6 °C 9.2 °C 1022.2 hPa Calm     91% 0 mm FEW
00:45 10.6 °C 9.4 °C 1022.2 hPa Calm     92% 0 mm FEW
00:55 10.6 °C 9.4 °C 1022.2 hPa Calm     92% 0 mm FEW
01:00 10.7 °C 9.4 °C 1022.2 hPa Calm     92% 0 mm FEW
01:10 10.9 °C 9.8 °C 1022.2 hPa Calm     93% 0 mm SCT
01:20 10.9 °C 9.7 °C 1022.2 hPa Calm     92% 0 mm SCT
01:30 10.9 °C 9.7 °C 1022.2 hPa Calm     92% 0 mm SCT
01:36 11.2 °C 10.1 °C 1022.2 hPa Calm     93% 0 mm SCT
01:51 11.6 °C 10.3 °C 1022.2 hPa Calm     92% 0 mm SCT
02:06 11.7 °C 10.2 °C 1022.2 hPa Calm     91% 0 mm BKN
02:21 11.6 °C 10.2 °C 1022.2 hPa Calm     91% 0 mm BKN
02:26 11.6 °C 10.2 °C 1022.2 hPa Calm     91% 0 mm BKN
02:31 11.6 °C 10.1 °C 1022.2 hPa Calm     91% 0 mm BKN
02:36 11.6 °C 10.1 °C 1022.2 hPa Calm     91% 0 mm BKN
02:41 11.6 °C 9.9 °C 1022.6 hPa Calm     90% 0 mm BKN
02:52 11.5 °C 9.9 °C 1022.6 hPa Calm     90% 0 mm BKN
02:57 11.4 °C 9.9 °C 1022.6 hPa Calm     90% 0 mm BKN
03:07 11.2 °C 9.6 °C 1022.6 hPa East 1.9 km/h 1.9 km/h 90% 0 mm BKN
03:12 11.1 °C 9.7 °C 1022.6 hPa East 1.9 km/h   91% 0 mm BKN
03:17 10.9 °C 9.6 °C 1022.6 hPa East 1.9 km/h   91% 0 mm BKN
03:22 10.8 °C 9.4 °C 1022.6 hPa Calm     91% 0 mm BKN
03:32 10.4 °C 8.9 °C 1022.6 hPa Calm     90% 0 mm BKN
03:37 10.3 °C 8.9 °C 1022.6 hPa Calm     91% 0 mm BKN
03:42 10.2 °C 8.8 °C 1022.2 hPa Calm     91% 0 mm BKN
03:53 9.8 °C 8.4 °C 1022.2 hPa Calm     91% 0 mm BKN
03:58 9.6 °C 8.2 °C 1022.2 hPa Calm     91% 0 mm BKN
04:03 9.4 °C 8.1 °C 1022.2 hPa Calm     91% 0 mm FEW
04:08 9.3 °C 7.9 °C 1022.2 hPa Calm     91% 0 mm FEW
04:10 9.3 °C 7.9 °C 1022.2 hPa Calm     91% 0 mm FEW
04:15 9.2 °C 7.8 °C 1022.2 hPa Calm     91% 0 mm FEW
04:20 9.1 °C 7.7 °C 1022.2 hPa Calm     91% 0 mm FEW
04:25 8.9 °C 7.5 °C 1022.2 hPa Calm     91% 0 mm FEW
04:30 8.8 °C 7.6 °C 1022.2 hPa Calm     92% 0 mm FEW
04:35 8.7 °C 7.5 °C 1022.2 hPa Calm     92% 0 mm FEW
04:40 8.7 °C 7.5 °C 1022.2 hPa Calm     92% 0 mm FEW
04:45 8.6 °C 7.4 °C 1022.2 hPa Calm     92% 0 mm FEW
04:51 8.5 °C 7.3 °C 1022.6 hPa Calm     92% 0 mm FEW
04:56 8.4 °C 7.2 °C 1022.2 hPa Calm     92% 0 mm FEW
05:01 8.3 °C 7.1 °C 1022.2 hPa Calm     92% 0 mm FEW
05:06 8.2 °C 7 °C 1022.2 hPa Calm     92% 0 mm CLR
05:11 8.2 °C 6.9 °C 1022.2 hPa Calm     92% 0 mm CLR
05:16 8.1 °C 6.8 °C 1022.2 hPa Calm     92% 0 mm CLR
05:21 8 °C 6.8 °C 1022.2 hPa Calm     92% 0 mm CLR
05:26 7.9 °C 6.7 °C 1022.2 hPa Calm     92% 0 mm CLR
05:31 7.8 °C 6.6 °C 1022.6 hPa Calm     92% 0 mm CLR
05:36 7.8 °C 6.6 °C 1022.6 hPa Calm     92% 0 mm CLR
05:41 7.7 °C 6.5 °C 1022.2 hPa Calm     92% 0 mm CLR
05:46 7.7 °C 6.4 °C 1022.2 hPa Calm     92% 0 mm CLR
05:51 7.6 °C 6.4 °C 1022.6 hPa Calm     92% 0 mm CLR
05:56 7.6 °C 6.4 °C 1022.6 hPa Calm     92% 0 mm CLR
06:01 7.6 °C 6.3 °C 1022.6 hPa Calm     92% 0 mm CLR
06:07 7.6 °C 6.3 °C 1022.6 hPa Calm     92% 0 mm CLR
06:12 7.4 °C 6.2 °C 1022.6 hPa Calm     92% 0 mm CLR
06:17 7.4 °C 6.4 °C 1022.6 hPa Calm     93% 0 mm CLR
06:22 7.4 °C 6.3 °C 1022.6 hPa Calm     93% 0 mm CLR
06:27 7.3 °C 6.3 °C 1022.6 hPa Calm     93% 0 mm CLR
06:32 7.3 °C 6.2 °C 1022.9 hPa Calm     93% 0 mm FEW
06:37 7.2 °C 6.2 °C 1022.9 hPa Calm     93% 0 mm FEW
06:42 7.2 °C 6.1 °C 1022.9 hPa Calm     93% 0 mm SCT
06:47 7.2 °C 6.1 °C 1022.9 hPa Calm     93% 0 mm SCT
06:52 7.1 °C 6.1 °C 1022.9 hPa Calm     93% 0 mm SCT
06:57 7.1 °C 6.1 °C 1023.2 hPa Calm     93% 0 mm SCT
07:02 7.1 °C 6 °C 1023.2 hPa Calm     93% 0 mm
07:07 7.1 °C 6 °C 1023.2 hPa Calm     93% 0 mm
07:12 7.1 °C 6 °C 1023.2 hPa Calm     93% 0 mm
07:18 7 °C 5.9 °C 1023.2 hPa Calm     93% 0 mm
07:23 7 °C 5.9 °C 1023.2 hPa Calm     93% 0 mm
07:28 6.9 °C 5.9 °C 1023.6 hPa Calm     93% 0 mm
07:33 6.9 °C 5.9 °C 1023.6 hPa Calm     93% 0 mm
07:38 6.9 °C 5.8 °C 1023.6 hPa Calm     93% 0 mm
07:43 6.9 °C 5.8 °C 1023.6 hPa Calm     93% 0 mm
07:48 6.8 °C 5.8 °C 1023.6 hPa Calm     93% 0 mm
07:53 6.8 °C 5.8 °C 1023.6 hPa Calm     93% 0 mm
07:58 6.9 °C 5.8 °C 1023.6 hPa Calm     93% 0 mm
08:03 6.9 °C 5.8 °C 1023.6 hPa Calm     93% 0 mm
08:08 6.9 °C 5.9 °C 1023.6 hPa Calm     93% 0 mm
08:13 7.1 °C 6 °C 1023.6 hPa Calm     93% 0 mm
08:19 7.1 °C 6.1 °C 1023.9 hPa Calm     93% 0 mm
08:24 7.2 °C 6.2 °C 1023.9 hPa East 1.9 km/h   93% 0 mm
08:29 7.4 °C 6.3 °C 1023.9 hPa East 1.9 km/h   93% 0 mm
08:34 7.5 °C 6.6 °C 1023.9 hPa East 1.9 km/h   94% 0 mm
08:39 7.6 °C 6.7 °C 1023.9 hPa Calm     94% 0 mm
08:44 7.7 °C 6.8 °C 1023.9 hPa Calm     94% 0 mm
08:49 7.8 °C 6.9 °C 1023.9 hPa Calm     94% 0 mm
08:54 7.9 °C 7.1 °C 1024.3 hPa Calm     94% 0 mm
08:58 8.1 °C 7.2 °C 1024.3 hPa Calm     94% 0 mm
09:03 8.1 °C 7.2 °C 1024.3 hPa Calm     94% 0 mm
09:08 8.2 °C 7.3 °C 1024.3 hPa Calm     94% 0 mm
09:13 8.3 °C 7.4 °C 1024.3 hPa Calm     94% 0 mm
09:18 8.3 °C 7.4 °C 1024.3 hPa East 1.9 km/h   94% 0 mm
09:23 8.5 °C 7.6 °C 1024.3 hPa East 1.9 km/h   94% 0 mm
09:28 8.7 °C 7.8 °C 1024.3 hPa Calm     94% 0 mm
09:33 8.7 °C 7.8 °C 1024.3 hPa Calm     94% 0 mm
09:38 8.9 °C 8 °C 1024.3 hPa Calm     94% 0 mm
09:43 9 °C 8.1 °C 1024.3 hPa Calm     94% 0 mm
09:48 9.3 °C 8.4 °C 1024.3 hPa Calm     94% 0 mm
09:53 9.5 °C 8.6 °C 1024.6 hPa ESE 1.9 km/h   94% 0 mm
09:59 9.6 °C 8.6 °C 1024.3 hPa East 1.9 km/h 1.9 km/h 94% 0 mm
10:04 9.7 °C 8.7 °C 1024.3 hPa East 3.7 km/h   94% 0 mm BKN
10:09 9.9 °C 8.9 °C 1024.3 hPa ESE 3.7 km/h   94% 0 mm BKN
10:14 10 °C 8.9 °C 1024.3 hPa South 1.9 km/h   93% 0 mm BKN
10:19 10.4 °C 9.1 °C 1024.3 hPa South 3.7 km/h   91% 0 mm BKN
10:24 11.1 °C 9.5 °C 1024.3 hPa South 3.7 km/h   90% 0 mm BKN
10:25 11.2 °C 9.2 °C 1024.3 hPa Calm   1.6 km/h 88% 0 mm BKN
10:30 11.9 °C 9.4 °C 1024.3 hPa SSW 1.9 km/h   85% 0 mm BKN
10:35 12.3 °C 9.2 °C 1024.3 hPa SE 3.7 km/h 3.7 km/h 81% 0 mm BKN
10:40 12.8 °C 9.2 °C 1024.3 hPa ESE 3.7 km/h 3.7 km/h 79% 0 mm BKN
10:45 13.3 °C 9.6 °C 1024.3 hPa South 3.7 km/h   78% 0 mm BKN
10:50 13.7 °C 8.9 °C 1024.3 hPa South 1.9 km/h   73% 0 mm BKN
10:55 14.1 °C 9.1 °C 1024.3 hPa SSW 5.6 km/h 5.6 km/h 72% 0 mm BKN
11:00 14.3 °C 8.3 °C 1024.3 hPa SSW 5.6 km/h 5.6 km/h 67% 0 mm BKN
11:06 14.6 °C 8.3 °C 1024.3 hPa SSW 5.6 km/h   66% 0 mm BKN
11:11 15.1 °C 8.6 °C 1024.3 hPa WSW 3.7 km/h   65% 0 mm BKN
11:16 15.6 °C 8.1 °C 1024.3 hPa WSW 3.7 km/h 3.7 km/h 61% 0 mm BKN
11:21 15.9 °C 8.2 °C 1024.3 hPa SW 5.6 km/h 5.6 km/h 60% 0 mm BKN
11:26 16.2 °C 7.9 °C 1023.9 hPa South 5.6 km/h   58% 0 mm BKN
11:31 16.1 °C 7.6 °C 1023.9 hPa SSE 3.7 km/h   57% 0 mm BKN
11:36 16.2 °C 7.9 °C 1023.9 hPa SE 3.7 km/h 3.7 km/h 58% 0 mm BKN
11:41 16.4 °C 7.1 °C 1023.9 hPa SSE 5.6 km/h 5.6 km/h 54% 0 mm BKN
11:46 16.8 °C 8 °C 1023.9 hPa WSW 5.6 km/h 5.6 km/h 56% 0 mm BKN
11:51 16.7 °C 7.3 °C 1023.6 hPa SE 3.7 km/h 3.7 km/h 54% 0 mm BKN
11:56 16.8 °C 7.7 °C 1023.6 hPa SSW 5.6 km/h 5.6 km/h 55% 0 mm BKN
12:01 17 °C 7.3 °C 1023.6 hPa WSW 5.6 km/h 5.6 km/h 53% 0 mm BKN
12:07 17.1 °C 6.3 °C 1023.2 hPa NE 3.7 km/h 3.7 km/h 49% 0 mm BKN
12:12 17.1 °C 6.8 °C 1023.2 hPa East 3.7 km/h 3.7 km/h 51% 0 mm BKN
12:17 17.2 °C 6.7 °C 1023.2 hPa ESE 3.7 km/h 3.7 km/h 50% 0 mm BKN
12:22 17.3 °C 6.8 °C 1023.2 hPa East 3.7 km/h 3.7 km/h 50% 0 mm BKN
12:27 17.2 °C 6.4 °C 1023.2 hPa East 3.7 km/h   49% 0 mm BKN
12:32 17.4 °C 5.7 °C 1023.2 hPa ENE 5.6 km/h   46% 0 mm BKN
12:37 17.8 °C 6.1 °C 1022.9 hPa North 5.6 km/h   46% 0 mm BKN
12:42 17.9 °C 5.8 °C 1022.9 hPa East 3.7 km/h 3.7 km/h 45% 0 mm BKN
12:47 18.1 °C 6.6 °C 1022.9 hPa SW 3.7 km/h   47% 0 mm BKN
12:52 18.2 °C 6.1 °C 1022.9 hPa SW 5.6 km/h 5.6 km/h 45% 0 mm BKN
13:02 18.7 °C 6.5 °C 1022.9 hPa South 5.6 km/h 5.6 km/h 45% 0 mm BKN
13:07 18.8 °C 6.3 °C 1022.9 hPa SSE 3.7 km/h 3.7 km/h 44% 0 mm BKN
13:12 18.7 °C 6.2 °C 1022.6 hPa SE 7.4 km/h 7.4 km/h 44% 0 mm BKN
13:18 18.7 °C 6.2 °C 1022.6 hPa ESE 7.4 km/h 7.4 km/h 44% 0 mm BKN
13:23 18.7 °C 6.6 °C 1022.6 hPa East 5.6 km/h 5.6 km/h 45% 0 mm BKN
13:28 18.6 °C 6.1 °C 1022.2 hPa East 7.4 km/h 7.4 km/h 44% 0 mm BKN
13:33 18.4 °C 5.9 °C 1022.2 hPa ENE 7.4 km/h 7.4 km/h 44% 0 mm BKN
13:38 18.4 °C 6.6 °C 1022.2 hPa SSW 7.4 km/h 7.4 km/h 46% 0 mm BKN
13:43 18.4 °C 5.9 °C 1022.2 hPa East 7.4 km/h 7.4 km/h 44% 0 mm BKN
13:48 18.4 °C 6.3 °C 1022.2 hPa East 7.4 km/h 7.4 km/h 45% 0 mm BKN
13:53 18.6 °C 5.7 °C 1022.2 hPa ESE 5.6 km/h 5.6 km/h 43% 0 mm BKN
13:58 18.5 °C 6.3 °C 1022.2 hPa East 5.6 km/h 5.6 km/h 45% 0 mm BKN
14:03 18.5 °C 6 °C 1022.2 hPa SSW 3.7 km/h   44% 0 mm BKN
14:08 18.6 °C 5.8 °C 1022.2 hPa WSW 3.7 km/h 3.7 km/h 43% 0 mm BKN
14:13 18.6 °C 5.4 °C 1021.9 hPa ESE 3.7 km/h   42% 0 mm BKN
14:14 18.6 °C 5.4 °C 1022.2 hPa ESE 3.7 km/h   42% 0 mm BKN
14:19 18.8 °C 5.6 °C 1022.2 hPa SE 3.7 km/h 3.7 km/h 42% 0 mm BKN
14:24 18.8 °C 5.3 °C 1021.9 hPa SE 3.7 km/h 3.7 km/h 41% 0 mm BKN
14:29 18.9 °C 5.3 °C 1021.9 hPa ESE 5.6 km/h 5.6 km/h 41% 0 mm BKN
14:34 18.9 °C 5.7 °C 1021.9 hPa West 5.6 km/h   42% 0 mm BKN
14:39 19.1 °C 4.4 °C 1021.9 hPa West 3.7 km/h 3.7 km/h 38% 0 mm BKN
14:44 19.2 °C 4.5 °C 1021.9 hPa East 3.7 km/h 3.7 km/h 38% 0 mm BKN
14:49 19.2 °C 4.2 °C 1021.9 hPa SSE 5.6 km/h 5.6 km/h 37% 0 mm BKN
14:54 19.3 °C 4.9 °C 1021.9 hPa West 5.6 km/h   39% 0 mm BKN
14:59 19.3 °C 6.1 °C 1021.9 hPa WNW 5.6 km/h   42% 0 mm BKN
15:03 19.3 °C 4.9 °C 1021.9 hPa WNW 1.9 km/h   39% 0 mm BKN
15:08 19.3 °C 5.4 °C 1021.6 hPa NW 1.9 km/h   40% 0 mm BKN
15:13 19.3 °C 6.4 °C 1021.6 hPa NNW 1.9 km/h 1.9 km/h 43% 0 mm BKN
15:18 19.3 °C 6.4 °C 1021.6 hPa NE 1.9 km/h 1.9 km/h 43% 0 mm BKN
15:23 19.3 °C 6.4 °C 1021.6 hPa ENE 3.7 km/h   43% 0 mm BKN
15:28 19.3 °C 6.7 °C 1021.6 hPa SE 3.7 km/h   44% 0 mm BKN
15:33 19.2 °C 6.3 °C 1021.6 hPa South 5.6 km/h 5.6 km/h 43% 0 mm BKN
15:38 19.1 °C 6.6 °C 1021.6 hPa SSW 5.6 km/h   44% 0 mm BKN
15:43 19.1 °C 6.9 °C 1021.6 hPa ESE 3.7 km/h   45% 0 mm BKN
15:48 19.1 °C 6.2 °C 1021.9 hPa ESE 3.7 km/h   43% 0 mm BKN
15:53 19.1 °C 6.8 °C 1021.9 hPa SSE 1.9 km/h 1.9 km/h 45% 0 mm BKN
15:58 18.9 °C 6.4 °C 1021.9 hPa South 1.9 km/h   44% 0 mm BKN
16:04 18.8 °C 7.2 °C 1021.9 hPa SE 1.9 km/h   47% 0 mm BKN
16:09 18.6 °C 6.4 °C 1021.9 hPa SSE 3.7 km/h 3.7 km/h 45% 0 mm BKN
16:14 18.6 °C 6.8 °C 1021.9 hPa SSW 3.7 km/h   46% 0 mm BKN
16:19 18.6 °C 6.7 °C 1021.9 hPa SSW 1.9 km/h   46% 0 mm BKN
16:29 18.4 °C 6.9 °C 1021.9 hPa SW 3.7 km/h 3.7 km/h 47% 0 mm BKN
16:34 18.2 °C 7 °C 1021.9 hPa WSW 3.7 km/h   48% 0 mm BKN
16:39 18.1 °C 6.3 °C 1021.9 hPa SSW 5.6 km/h   46% 0 mm BKN
16:44 17.9 °C 6.2 °C 1021.9 hPa ENE 5.6 km/h   46% 0 mm BKN
16:49 17.8 °C 6.3 °C 1021.9 hPa East 5.6 km/h 5.6 km/h 47% 0 mm BKN
16:54 17.6 °C 6.4 °C 1021.9 hPa ESE 5.6 km/h   48% 0 mm BKN
16:59 17.4 °C 6.3 °C 1021.9 hPa ESE 3.7 km/h   48% 0 mm BKN
17:04 17.2 °C 6.4 °C 1021.9 hPa East 1.9 km/h   49% 0 mm BKN
17:10 16.9 °C 7 °C 1021.9 hPa East 1.9 km/h   52% 0 mm BKN
17:15 16.6 °C 7.3 °C 1021.9 hPa East 1.9 km/h   54% 0 mm BKN
17:20 16.3 °C 6.9 °C 1022.2 hPa Calm     54% 0 mm BKN
17:25 15.9 °C 7.4 °C 1022.2 hPa East 1.9 km/h   57% 0 mm BKN
17:30 15.7 °C 7.2 °C 1022.2 hPa East 1.9 km/h   57% 0 mm BKN
17:35 15.5 °C 7.3 °C 1022.2 hPa Calm     58% 0 mm BKN
17:40 15.3 °C 7.1 °C 1022.2 hPa Calm     58% 0 mm BKN
17:45 15.1 °C 6.8 °C 1022.2 hPa Calm     58% 0 mm BKN
17:55 14.8 °C 6.8 °C 1022.2 hPa Calm     59% 0 mm BKN
18:00 14.7 °C 7 °C 1022.2 hPa Calm     60% 0 mm BKN
18:05 14.4 °C 7 °C 1022.2 hPa Calm     61% 0 mm BKN
18:10 14.3 °C 6.7 °C 1022.2 hPa Calm     60% 0 mm BKN
18:12 14.3 °C 7.2 °C 1022.2 hPa Calm     62% 0 mm BKN
18:17 14.2 °C 6.8 °C 1022.6 hPa East 1.9 km/h   61% 0 mm BKN
18:23 14.1 °C 6.9 °C 1022.6 hPa East 1.9 km/h   62% 0 mm BKN
18:28 14.1 °C 6.7 °C 1022.6 hPa Calm     61% 0 mm BKN
18:33 14.1 °C 6.7 °C 1022.6 hPa Calm     61% 0 mm BKN
18:38 14 °C 6.8 °C 1022.6 hPa Calm     62% 0 mm BKN
18:43 13.9 °C 6.9 °C 1022.9 hPa Calm     63% 0 mm BKN
18:48 13.8 °C 6.8 °C 1022.9 hPa Calm     63% 0 mm BKN
18:53 13.7 °C 6.7 °C 1022.9 hPa Calm     63% 0 mm BKN
18:58 13.6 °C 6.9 °C 1022.9 hPa East 1.9 km/h   64% 0 mm BKN
19:03 13.5 °C 6.8 °C 1022.9 hPa East 1.9 km/h   64% 0 mm BKN
19:08 13.4 °C 6.9 °C 1022.9 hPa Calm     65% 0 mm BKN
19:13 13.3 °C 7.1 °C 1022.9 hPa Calm     66% 0 mm BKN
19:18 13.2 °C 6.7 °C 1022.9 hPa Calm     65% 0 mm BKN
19:23 13.1 °C 7.1 °C 1022.9 hPa Calm     67% 0 mm BKN
19:29 13 °C 7 °C 1022.9 hPa Calm     67% 0 mm BKN
19:34 12.9 °C 6.9 °C 1022.9 hPa Calm     67% 0 mm BKN
19:39 12.9 °C 6.9 °C 1022.9 hPa Calm     67% 0 mm BKN
19:44 12.9 °C 7.1 °C 1022.9 hPa Calm     68% 0 mm BKN
19:49 12.9 °C 6.7 °C 1022.9 hPa Calm     66% 0 mm BKN
19:54 13.1 °C 7.1 °C 1022.9 hPa Calm     67% 0 mm BKN
19:59 12.8 °C 7.3 °C 1022.9 hPa Calm     69% 0 mm BKN
20:04 12.4 °C 7.1 °C 1022.9 hPa Calm     70% 0 mm BKN
20:09 12.1 °C 6.9 °C 1023.2 hPa Calm     71% 0 mm BKN
20:14 11.7 °C 7 °C 1023.2 hPa Calm     73% 0 mm BKN
20:19 11.2 °C 6.9 °C 1023.6 hPa East 1.9 km/h   75% 0 mm BKN
20:24 11 °C 6.7 °C 1023.6 hPa East 1.9 km/h   75% 0 mm BKN
20:30 11 °C 6.9 °C 1023.6 hPa East 1.9 km/h   76% 0 mm BKN
20:35 10.9 °C 7 °C 1023.6 hPa Calm     77% 0 mm BKN
20:40 10.8 °C 6.9 °C 1023.6 hPa Calm     77% 0 mm BKN
20:45 10.7 °C 7.1 °C 1023.6 hPa Calm     78% 0 mm BKN
20:50 10.6 °C 6.9 °C 1023.6 hPa Calm     78% 0 mm BKN
20:55 10.5 °C 6.8 °C 1023.6 hPa Calm     78% 0 mm BKN
21:00 10.6 °C 6.9 °C 1023.6 hPa Calm     78% 0 mm BKN
21:05 10.6 °C 6.9 °C 1023.6 hPa Calm     78% 0 mm BKN
21:10 10.5 °C 6.8 °C 1023.6 hPa Calm     78% 0 mm BKN
21:15 10.4 °C 6.9 °C 1023.9 hPa Calm     79% 0 mm BKN
21:20 10.4 °C 6.8 °C 1023.9 hPa Calm     78% 0 mm BKN
21:25 10.3 °C 6.8 °C 1023.9 hPa Calm     79% 0 mm BKN
21:30 10.2 °C 6.7 °C 1023.9 hPa Calm     79% 0 mm BKN
21:36 10.1 °C 6.8 °C 1023.9 hPa Calm     80% 0 mm BKN
21:41 9.8 °C 6.6 °C 1023.9 hPa Calm     80% 0 mm BKN
21:46 9.7 °C 6.6 °C 1023.9 hPa Calm     81% 0 mm BKN
21:51 9.6 °C 6.7 °C 1023.9 hPa Calm     82% 0 mm BKN
21:56 9.4 °C 6.5 °C 1023.9 hPa Calm     82% 0 mm BKN
22:01 9.3 °C 6.4 °C 1023.9 hPa Calm     82% 0 mm BKN
22:06 9.3 °C 6.6 °C 1023.9 hPa Calm     83% 0 mm BKN
22:18 9.4 °C 6.8 °C 1023.9 hPa Calm     84% 0 mm BKN
22:22 9.5 °C 6.8 °C 1023.9 hPa Calm     83% 0 mm BKN
22:27 9.4 °C 6.7 °C 1024.3 hPa Calm     83% 0 mm BKN
22:29 9.4 °C 6.7 °C 1024.3 hPa Calm     83% 0 mm BKN
22:31 9.4 °C 6.7 °C 1024.3 hPa Calm     83% 0 mm BKN
22:36 9.3 °C 6.6 °C 1024.3 hPa Calm     83% 0 mm BKN
22:41 9.1 °C 6.4 °C 1024.3 hPa Calm     83% 0 mm BKN
22:46 9 °C 6.4 °C 1024.3 hPa Calm     84% 0 mm BKN
22:48 8.9 °C 6.4 °C 1024.3 hPa Calm     84% 0 mm BKN
22:53 8.8 °C 6.3 °C 1024.3 hPa Calm     84% 0 mm BKN
22:58 8.8 °C 6.6 °C 1024.3 hPa Calm     86% 0 mm BKN
23:04 8.8 °C 6.6 °C 1024.3 hPa Calm     86% 0 mm BKN
23:09 8.7 °C 6.5 °C 1024.3 hPa Calm     86% 0 mm BKN
23:14 8.7 °C 6.4 °C 1024.3 hPa Calm     86% 0 mm BKN
23:19 8.6 °C 6.5 °C 1024.3 hPa Calm     87% 0 mm BKN
23:24 8.6 °C 6.7 °C 1024.3 hPa Calm     88% 0 mm BKN
23:29 8.6 °C 6.7 °C 1024.3 hPa Calm     88% 0 mm BKN
23:34 8.6 °C 6.7 °C 1024.3 hPa Calm     88% 0 mm BKN
23:39 8.6 °C 6.7 °C 1024.3 hPa Calm     88% 0 mm BKN
23:44 8.7 °C 6.9 °C 1024.3 hPa Calm     89% 0 mm BKN
23:49 8.8 °C 7.1 °C 1024.3 hPa Calm     89% 0 mm BKN
23:54 8.9 °C 7.2 °C 1024.3 hPa Calm     89% 0 mm BKN
23:59 8.8 °C 7.1 °C 1024.3 hPa Calm     89% 0 mm BKN
Piedmont Bend
Compliments of Weather Underground - 4 mb